sensor_id;sensor_type;location;lat;lon;timestamp;P1;durP1;ratioP1;P2;durP2;ratioP2
71087;SDS011;58747;50.674;4.616;2022-07-06T00:01:47;3.77;;;2.87;;
71087;SDS011;58747;50.674;4.616;2022-07-06T00:04:12;3.67;;;3.37;;
71087;SDS011;58747;50.674;4.616;2022-07-06T00:06:38;3.80;;;2.77;;
71087;SDS011;58747;50.674;4.616;2022-07-06T00:09:04;2.83;;;2.63;;
71087;SDS011;58747;50.674;4.616;2022-07-06T00:11:30;5.80;;;2.60;;
71087;SDS011;58747;50.674;4.616;2022-07-06T00:13:56;5.67;;;3.03;;
71087;SDS011;58747;50.674;4.616;2022-07-06T00:16:21;4.13;;;3.37;;
71087;SDS011;58747;50.674;4.616;2022-07-06T00:18:47;3.28;;;2.85;;
71087;SDS011;58747;50.674;4.616;2022-07-06T00:21:12;3.80;;;2.73;;
71087;SDS011;58747;50.674;4.616;2022-07-06T00:23:38;5.53;;;3.33;;
71087;SDS011;58747;50.674;4.616;2022-07-06T00:26:03;3.37;;;2.60;;
71087;SDS011;58747;50.674;4.616;2022-07-06T00:28:28;3.83;;;3.23;;
71087;SDS011;58747;50.674;4.616;2022-07-06T00:30:54;2.78;;;2.47;;
71087;SDS011;58747;50.674;4.616;2022-07-06T00:33:20;6.23;;;2.90;;
71087;SDS011;58747;50.674;4.616;2022-07-06T00:35:46;5.05;;;3.10;;
71087;SDS011;58747;50.674;4.616;2022-07-06T00:38:11;3.30;;;2.90;;
71087;SDS011;58747;50.674;4.616;2022-07-06T00:40:36;5.40;;;3.17;;
71087;SDS011;58747;50.674;4.616;2022-07-06T00:43:02;3.97;;;2.97;;
71087;SDS011;58747;50.674;4.616;2022-07-06T00:45:27;4.40;;;3.25;;
71087;SDS011;58747;50.674;4.616;2022-07-06T00:47:53;3.43;;;3.13;;
71087;SDS011;58747;50.674;4.616;2022-07-06T00:50:19;3.45;;;3.08;;
71087;SDS011;58747;50.674;4.616;2022-07-06T00:52:58;3.67;;;2.70;;
71087;SDS011;58747;50.674;4.616;2022-07-06T00:55:26;3.33;;;2.58;;
71087;SDS011;58747;50.674;4.616;2022-07-06T00:57:52;3.42;;;2.70;;
71087;SDS011;58747;50.674;4.616;2022-07-06T01:00:19;4.82;;;2.40;;
71087;SDS011;58747;50.674;4.616;2022-07-06T01:02:46;5.25;;;3.25;;
71087;SDS011;58747;50.674;4.616;2022-07-06T01:05:13;3.67;;;3.20;;
71087;SDS011;58747;50.674;4.616;2022-07-06T01:07:40;4.32;;;2.85;;
71087;SDS011;58747;50.674;4.616;2022-07-06T01:10:07;2.85;;;2.65;;
71087;SDS011;58747;50.674;4.616;2022-07-06T01:12:37;3.28;;;2.92;;
71087;SDS011;58747;50.674;4.616;2022-07-06T01:15:04;4.03;;;3.25;;
71087;SDS011;58747;50.674;4.616;2022-07-06T01:17:32;3.47;;;2.83;;
71087;SDS011;58747;50.674;4.616;2022-07-06T01:20:04;6.13;;;3.00;;
71087;SDS011;58747;50.674;4.616;2022-07-06T01:22:33;3.53;;;3.22;;
71087;SDS011;58747;50.674;4.616;2022-07-06T01:24:59;3.40;;;2.43;;
71087;SDS011;58747;50.674;4.616;2022-07-06T01:27:24;4.27;;;2.77;;
71087;SDS011;58747;50.674;4.616;2022-07-06T01:29:49;3.30;;;3.00;;
71087;SDS011;58747;50.674;4.616;2022-07-06T01:32:15;4.75;;;3.40;;
71087;SDS011;58747;50.674;4.616;2022-07-06T01:34:40;4.77;;;3.30;;
71087;SDS011;58747;50.674;4.616;2022-07-06T01:37:06;4.50;;;3.20;;
71087;SDS011;58747;50.674;4.616;2022-07-06T01:39:31;3.13;;;2.83;;
71087;SDS011;58747;50.674;4.616;2022-07-06T01:41:56;3.67;;;3.15;;
71087;SDS011;58747;50.674;4.616;2022-07-06T01:44:22;7.13;;;3.30;;
71087;SDS011;58747;50.674;4.616;2022-07-06T01:46:47;3.30;;;3.00;;
71087;SDS011;58747;50.674;4.616;2022-07-06T01:49:12;5.43;;;3.57;;
71087;SDS011;58747;50.674;4.616;2022-07-06T01:51:38;5.73;;;3.43;;
71087;SDS011;58747;50.674;4.616;2022-07-06T01:54:03;4.80;;;3.10;;
71087;SDS011;58747;50.674;4.616;2022-07-06T01:56:29;4.20;;;3.33;;
71087;SDS011;58747;50.674;4.616;2022-07-06T01:58:54;3.17;;;2.97;;
71087;SDS011;58747;50.674;4.616;2022-07-06T02:01:19;3.27;;;2.97;;
71087;SDS011;58747;50.674;4.616;2022-07-06T02:03:46;3.47;;;2.95;;
71087;SDS011;58747;50.674;4.616;2022-07-06T02:06:12;5.22;;;3.20;;
71087;SDS011;58747;50.674;4.616;2022-07-06T02:08:38;4.93;;;3.40;;
71087;SDS011;58747;50.674;4.616;2022-07-06T02:11:04;3.80;;;3.40;;
71087;SDS011;58747;50.674;4.616;2022-07-06T02:13:30;4.00;;;3.35;;
71087;SDS011;58747;50.674;4.616;2022-07-06T02:15:56;3.17;;;2.67;;
71087;SDS011;58747;50.674;4.616;2022-07-06T02:18:21;3.30;;;3.00;;
71087;SDS011;58747;50.674;4.616;2022-07-06T02:20:47;3.50;;;3.20;;
71087;SDS011;58747;50.674;4.616;2022-07-06T02:23:12;4.53;;;2.93;;
71087;SDS011;58747;50.674;4.616;2022-07-06T02:25:37;3.83;;;3.43;;
71087;SDS011;58747;50.674;4.616;2022-07-06T02:28:03;3.53;;;3.20;;
71087;SDS011;58747;50.674;4.616;2022-07-06T02:30:29;4.27;;;2.87;;
71087;SDS011;58747;50.674;4.616;2022-07-06T02:32:54;3.87;;;3.20;;
71087;SDS011;58747;50.674;4.616;2022-07-06T02:35:19;3.67;;;3.17;;
71087;SDS011;58747;50.674;4.616;2022-07-06T02:37:45;3.28;;;2.85;;
71087;SDS011;58747;50.674;4.616;2022-07-06T02:40:10;6.80;;;3.50;;
71087;SDS011;58747;50.674;4.616;2022-07-06T02:42:36;3.60;;;3.30;;
71087;SDS011;58747;50.674;4.616;2022-07-06T02:45:02;3.87;;;3.17;;
71087;SDS011;58747;50.674;4.616;2022-07-06T02:47:28;3.60;;;2.63;;
71087;SDS011;58747;50.674;4.616;2022-07-06T02:49:53;3.27;;;2.43;;
71087;SDS011;58747;50.674;4.616;2022-07-06T02:52:18;3.77;;;3.07;;
71087;SDS011;58747;50.674;4.616;2022-07-06T02:54:44;4.73;;;3.37;;
71087;SDS011;58747;50.674;4.616;2022-07-06T02:57:09;6.70;;;3.43;;
71087;SDS011;58747;50.674;4.616;2022-07-06T02:59:35;6.00;;;3.38;;
71087;SDS011;58747;50.674;4.616;2022-07-06T03:02:02;3.38;;;3.08;;
71087;SDS011;58747;50.674;4.616;2022-07-06T03:04:29;2.97;;;2.77;;
71087;SDS011;58747;50.674;4.616;2022-07-06T03:06:54;4.03;;;2.77;;
71087;SDS011;58747;50.674;4.616;2022-07-06T03:09:19;4.40;;;3.27;;
71087;SDS011;58747;50.674;4.616;2022-07-06T03:11:45;3.43;;;2.70;;
71087;SDS011;58747;50.674;4.616;2022-07-06T03:14:10;3.40;;;3.10;;
71087;SDS011;58747;50.674;4.616;2022-07-06T03:16:35;3.70;;;2.77;;
71087;SDS011;58747;50.674;4.616;2022-07-06T03:19:01;4.50;;;3.50;;
71087;SDS011;58747;50.674;4.616;2022-07-06T03:21:27;3.63;;;3.30;;
71087;SDS011;58747;50.674;4.616;2022-07-06T03:23:52;3.30;;;2.73;;
71087;SDS011;58747;50.674;4.616;2022-07-06T03:26:17;4.93;;;3.17;;
71087;SDS011;58747;50.674;4.616;2022-07-06T03:28:43;3.80;;;3.40;;
71087;SDS011;58747;50.674;4.616;2022-07-06T03:31:08;4.03;;;3.40;;
71087;SDS011;58747;50.674;4.616;2022-07-06T03:33:33;3.30;;;2.63;;
71087;SDS011;58747;50.674;4.616;2022-07-06T03:35:59;3.90;;;3.50;;
71087;SDS011;58747;50.674;4.616;2022-07-06T03:38:24;4.13;;;3.63;;
71087;SDS011;58747;50.674;4.616;2022-07-06T03:40:50;4.00;;;2.97;;
71087;SDS011;58747;50.674;4.616;2022-07-06T03:43:15;5.80;;;3.83;;
71087;SDS011;58747;50.674;4.616;2022-07-06T03:45:41;4.67;;;2.93;;
71087;SDS011;58747;50.674;4.616;2022-07-06T03:48:06;3.42;;;3.13;;
71087;SDS011;58747;50.674;4.616;2022-07-06T03:50:32;4.53;;;3.30;;
71087;SDS011;58747;50.674;4.616;2022-07-06T03:52:57;4.73;;;3.10;;
71087;SDS011;58747;50.674;4.616;2022-07-06T03:55:22;6.80;;;3.30;;
71087;SDS011;58747;50.674;4.616;2022-07-06T03:57:48;6.18;;;3.58;;
71087;SDS011;58747;50.674;4.616;2022-07-06T04:00:13;3.63;;;3.33;;
71087;SDS011;58747;50.674;4.616;2022-07-06T04:02:39;3.80;;;3.40;;
71087;SDS011;58747;50.674;4.616;2022-07-06T04:05:04;4.18;;;3.75;;
71087;SDS011;58747;50.674;4.616;2022-07-06T04:07:30;3.93;;;2.80;;
71087;SDS011;58747;50.674;4.616;2022-07-06T04:09:56;4.30;;;3.72;;
71087;SDS011;58747;50.674;4.616;2022-07-06T04:12:21;3.40;;;3.00;;
71087;SDS011;58747;50.674;4.616;2022-07-06T04:14:47;6.00;;;3.50;;
71087;SDS011;58747;50.674;4.616;2022-07-06T04:17:12;6.00;;;3.40;;
71087;SDS011;58747;50.674;4.616;2022-07-06T04:19:56;4.53;;;3.75;;
71087;SDS011;58747;50.674;4.616;2022-07-06T04:22:22;4.30;;;3.77;;
71087;SDS011;58747;50.674;4.616;2022-07-06T04:24:47;5.70;;;3.50;;
71087;SDS011;58747;50.674;4.616;2022-07-06T04:27:12;3.77;;;3.47;;
71087;SDS011;58747;50.674;4.616;2022-07-06T04:29:38;6.40;;;3.50;;
71087;SDS011;58747;50.674;4.616;2022-07-06T04:32:03;4.80;;;3.83;;
71087;SDS011;58747;50.674;4.616;2022-07-06T04:34:29;6.77;;;3.63;;
71087;SDS011;58747;50.674;4.616;2022-07-06T04:36:54;4.97;;;3.92;;
71087;SDS011;58747;50.674;4.616;2022-07-06T04:39:19;4.30;;;3.90;;
71087;SDS011;58747;50.674;4.616;2022-07-06T04:41:45;5.00;;;4.37;;
71087;SDS011;58747;50.674;4.616;2022-07-06T04:44:10;4.20;;;3.80;;
71087;SDS011;58747;50.674;4.616;2022-07-06T04:46:35;4.30;;;3.60;;
71087;SDS011;58747;50.674;4.616;2022-07-06T04:49:01;5.67;;;4.33;;
71087;SDS011;58747;50.674;4.616;2022-07-06T04:51:26;4.05;;;3.50;;
71087;SDS011;58747;50.674;4.616;2022-07-06T04:53:52;3.60;;;3.30;;
71087;SDS011;58747;50.674;4.616;2022-07-06T04:56:17;6.63;;;3.73;;
71087;SDS011;58747;50.674;4.616;2022-07-06T04:58:42;5.00;;;4.50;;
71087;SDS011;58747;50.674;4.616;2022-07-06T05:01:08;6.27;;;3.93;;
71087;SDS011;58747;50.674;4.616;2022-07-06T05:03:33;4.30;;;3.88;;
71087;SDS011;58747;50.674;4.616;2022-07-06T05:06:04;5.70;;;4.13;;
71087;SDS011;58747;50.674;4.616;2022-07-06T05:08:30;6.72;;;4.47;;
71087;SDS011;58747;50.674;4.616;2022-07-06T05:10:55;5.50;;;3.90;;
71087;SDS011;58747;50.674;4.616;2022-07-06T05:13:20;4.00;;;3.50;;
71087;SDS011;58747;50.674;4.616;2022-07-06T05:15:46;5.10;;;3.83;;
71087;SDS011;58747;50.674;4.616;2022-07-06T05:18:11;5.33;;;3.93;;
71087;SDS011;58747;50.674;4.616;2022-07-06T05:20:36;5.03;;;3.53;;
71087;SDS011;58747;50.674;4.616;2022-07-06T05:23:02;5.83;;;3.63;;
71087;SDS011;58747;50.674;4.616;2022-07-06T05:25:27;5.43;;;4.37;;
71087;SDS011;58747;50.674;4.616;2022-07-06T05:27:53;5.85;;;3.60;;
71087;SDS011;58747;50.674;4.616;2022-07-06T05:30:18;5.47;;;3.87;;
71087;SDS011;58747;50.674;4.616;2022-07-06T05:32:44;6.07;;;4.30;;
71087;SDS011;58747;50.674;4.616;2022-07-06T05:35:09;7.73;;;4.30;;
71087;SDS011;58747;50.674;4.616;2022-07-06T05:37:35;7.27;;;4.40;;
71087;SDS011;58747;50.674;4.616;2022-07-06T05:40:00;10.23;;;4.05;;
71087;SDS011;58747;50.674;4.616;2022-07-06T05:42:26;7.30;;;4.43;;
71087;SDS011;58747;50.674;4.616;2022-07-06T05:44:54;9.17;;;4.67;;
71087;SDS011;58747;50.674;4.616;2022-07-06T05:47:21;9.50;;;5.43;;
71087;SDS011;58747;50.674;4.616;2022-07-06T05:50:05;6.35;;;4.97;;
71087;SDS011;58747;50.674;4.616;2022-07-06T05:52:37;5.05;;;3.80;;
71087;SDS011;58747;50.674;4.616;2022-07-06T05:55:03;7.22;;;4.18;;
71087;SDS011;58747;50.674;4.616;2022-07-06T05:57:28;6.87;;;4.50;;
71087;SDS011;58747;50.674;4.616;2022-07-06T05:59:54;6.93;;;4.53;;
71087;SDS011;58747;50.674;4.616;2022-07-06T06:02:19;6.18;;;5.00;;
71087;SDS011;58747;50.674;4.616;2022-07-06T06:04:44;6.53;;;4.60;;
71087;SDS011;58747;50.674;4.616;2022-07-06T06:07:10;8.07;;;4.73;;
71087;SDS011;58747;50.674;4.616;2022-07-06T06:09:35;7.70;;;4.33;;
71087;SDS011;58747;50.674;4.616;2022-07-06T06:12:00;9.07;;;4.60;;
71087;SDS011;58747;50.674;4.616;2022-07-06T06:14:26;9.70;;;5.27;;
71087;SDS011;58747;50.674;4.616;2022-07-06T06:16:51;9.27;;;5.03;;
71087;SDS011;58747;50.674;4.616;2022-07-06T06:19:17;8.23;;;5.90;;
71087;SDS011;58747;50.674;4.616;2022-07-06T06:21:42;9.60;;;6.23;;
71087;SDS011;58747;50.674;4.616;2022-07-06T06:24:07;10.23;;;7.37;;
71087;SDS011;58747;50.674;4.616;2022-07-06T06:26:33;11.10;;;7.83;;
71087;SDS011;58747;50.674;4.616;2022-07-06T06:28:58;15.23;;;11.90;;
71087;SDS011;58747;50.674;4.616;2022-07-06T06:31:23;15.30;;;8.75;;
71087;SDS011;58747;50.674;4.616;2022-07-06T06:33:49;14.47;;;7.10;;
71087;SDS011;58747;50.674;4.616;2022-07-06T06:36:14;9.00;;;6.50;;
71087;SDS011;58747;50.674;4.616;2022-07-06T06:38:39;8.77;;;6.30;;
71087;SDS011;58747;50.674;4.616;2022-07-06T06:41:05;7.97;;;5.10;;
71087;SDS011;58747;50.674;4.616;2022-07-06T06:43:30;8.93;;;4.53;;
71087;SDS011;58747;50.674;4.616;2022-07-06T06:45:56;8.83;;;3.47;;
71087;SDS011;58747;50.674;4.616;2022-07-06T06:48:21;5.87;;;3.93;;
71087;SDS011;58747;50.674;4.616;2022-07-06T06:50:47;6.50;;;4.30;;
71087;SDS011;58747;50.674;4.616;2022-07-06T06:53:12;6.57;;;3.97;;
71087;SDS011;58747;50.674;4.616;2022-07-06T06:55:38;7.03;;;4.07;;
71087;SDS011;58747;50.674;4.616;2022-07-06T06:58:03;7.03;;;3.30;;
71087;SDS011;58747;50.674;4.616;2022-07-06T07:00:29;5.88;;;3.60;;
71087;SDS011;58747;50.674;4.616;2022-07-06T07:02:54;4.60;;;3.60;;
71087;SDS011;58747;50.674;4.616;2022-07-06T07:05:20;3.50;;;3.20;;
71087;SDS011;58747;50.674;4.616;2022-07-06T07:07:45;4.18;;;2.38;;
71087;SDS011;58747;50.674;4.616;2022-07-06T07:10:10;2.93;;;2.20;;
71087;SDS011;58747;50.674;4.616;2022-07-06T07:12:41;4.73;;;2.57;;
71087;SDS011;58747;50.674;4.616;2022-07-06T07:15:08;2.83;;;2.22;;
71087;SDS011;58747;50.674;4.616;2022-07-06T07:17:34;3.43;;;2.93;;
71087;SDS011;58747;50.674;4.616;2022-07-06T07:19:59;3.60;;;2.50;;
71087;SDS011;58747;50.674;4.616;2022-07-06T07:22:24;3.00;;;2.00;;
71087;SDS011;58747;50.674;4.616;2022-07-06T07:24:50;2.57;;;2.43;;
71087;SDS011;58747;50.674;4.616;2022-07-06T07:27:15;2.63;;;2.43;;
71087;SDS011;58747;50.674;4.616;2022-07-06T07:29:40;2.93;;;1.83;;
71087;SDS011;58747;50.674;4.616;2022-07-06T07:32:06;4.23;;;2.17;;
71087;SDS011;58747;50.674;4.616;2022-07-06T07:34:31;2.47;;;2.15;;
71087;SDS011;58747;50.674;4.616;2022-07-06T07:36:57;3.50;;;2.33;;
71087;SDS011;58747;50.674;4.616;2022-07-06T07:39:22;3.70;;;2.40;;
71087;SDS011;58747;50.674;4.616;2022-07-06T07:41:47;3.57;;;2.47;;
71087;SDS011;58747;50.674;4.616;2022-07-06T07:44:15;3.15;;;2.00;;
71087;SDS011;58747;50.674;4.616;2022-07-06T07:46:40;2.47;;;1.88;;
71087;SDS011;58747;50.674;4.616;2022-07-06T07:49:06;2.57;;;2.37;;
71087;SDS011;58747;50.674;4.616;2022-07-06T07:51:32;2.72;;;2.05;;
71087;SDS011;58747;50.674;4.616;2022-07-06T07:53:58;2.43;;;2.23;;
71087;SDS011;58747;50.674;4.616;2022-07-06T07:56:23;2.67;;;2.47;;
71087;SDS011;58747;50.674;4.616;2022-07-06T07:58:48;3.60;;;2.87;;
71087;SDS011;58747;50.674;4.616;2022-07-06T08:01:14;4.10;;;2.93;;
71087;SDS011;58747;50.674;4.616;2022-07-06T08:03:39;2.95;;;2.42;;
71087;SDS011;58747;50.674;4.616;2022-07-06T08:06:05;5.60;;;3.47;;
71087;SDS011;58747;50.674;4.616;2022-07-06T08:08:30;3.00;;;2.57;;
71087;SDS011;58747;50.674;4.616;2022-07-06T08:10:55;3.17;;;2.80;;
71087;SDS011;58747;50.674;4.616;2022-07-06T08:13:21;3.70;;;2.88;;
71087;SDS011;58747;50.674;4.616;2022-07-06T08:15:46;3.77;;;3.10;;
71087;SDS011;58747;50.674;4.616;2022-07-06T08:18:11;3.57;;;2.87;;
71087;SDS011;58747;50.674;4.616;2022-07-06T08:20:37;5.17;;;3.90;;
71087;SDS011;58747;50.674;4.616;2022-07-06T08:23:03;3.70;;;3.07;;
71087;SDS011;58747;50.674;4.616;2022-07-06T08:25:29;3.17;;;2.90;;
71087;SDS011;58747;50.674;4.616;2022-07-06T08:27:55;5.35;;;3.33;;
71087;SDS011;58747;50.674;4.616;2022-07-06T08:30:20;4.67;;;3.20;;
71087;SDS011;58747;50.674;4.616;2022-07-06T08:32:46;3.60;;;3.17;;
71087;SDS011;58747;50.674;4.616;2022-07-06T08:35:11;6.30;;;3.70;;
71087;SDS011;58747;50.674;4.616;2022-07-06T08:37:37;7.87;;;3.53;;
71087;SDS011;58747;50.674;4.616;2022-07-06T08:40:03;4.70;;;3.15;;
71087;SDS011;58747;50.674;4.616;2022-07-06T08:42:30;3.73;;;3.30;;
71087;SDS011;58747;50.674;4.616;2022-07-06T08:44:59;4.25;;;2.63;;
71087;SDS011;58747;50.674;4.616;2022-07-06T08:47:26;3.35;;;2.78;;
71087;SDS011;58747;50.674;4.616;2022-07-06T08:49:52;4.68;;;3.05;;
71087;SDS011;58747;50.674;4.616;2022-07-06T08:52:18;5.53;;;3.20;;
71087;SDS011;58747;50.674;4.616;2022-07-06T08:54:43;4.30;;;3.67;;
71087;SDS011;58747;50.674;4.616;2022-07-06T08:57:09;4.60;;;3.13;;
71087;SDS011;58747;50.674;4.616;2022-07-06T08:59:35;5.85;;;3.20;;
71087;SDS011;58747;50.674;4.616;2022-07-06T09:02:00;6.07;;;3.30;;
71087;SDS011;58747;50.674;4.616;2022-07-06T09:04:28;6.50;;;3.42;;
71087;SDS011;58747;50.674;4.616;2022-07-06T09:06:57;5.85;;;3.75;;
71087;SDS011;58747;50.674;4.616;2022-07-06T09:09:22;6.17;;;4.00;;
71087;SDS011;58747;50.674;4.616;2022-07-06T09:11:49;6.43;;;4.10;;
71087;SDS011;58747;50.674;4.616;2022-07-06T09:14:15;4.57;;;3.80;;
71087;SDS011;58747;50.674;4.616;2022-07-06T09:16:41;4.27;;;3.87;;
71087;SDS011;58747;50.674;4.616;2022-07-06T09:19:08;5.45;;;4.18;;
71087;SDS011;58747;50.674;4.616;2022-07-06T09:21:36;4.80;;;3.90;;
71087;SDS011;58747;50.674;4.616;2022-07-06T09:24:02;5.80;;;3.65;;
71087;SDS011;58747;50.674;4.616;2022-07-06T09:26:31;4.35;;;3.20;;
71087;SDS011;58747;50.674;4.616;2022-07-06T09:28:57;6.80;;;4.50;;
71087;SDS011;58747;50.674;4.616;2022-07-06T09:31:24;4.22;;;3.83;;
71087;SDS011;58747;50.674;4.616;2022-07-06T09:34:08;6.78;;;3.58;;
71087;SDS011;58747;50.674;4.616;2022-07-06T09:41:45;4.30;;;3.90;;
71087;SDS011;58747;50.674;4.616;2022-07-06T09:44:11;4.93;;;4.43;;
71087;SDS011;58747;50.674;4.616;2022-07-06T09:46:37;5.73;;;3.83;;
71087;SDS011;58747;50.674;4.616;2022-07-06T09:49:06;5.70;;;3.95;;
71087;SDS011;58747;50.674;4.616;2022-07-06T09:51:31;6.97;;;3.63;;
71087;SDS011;58747;50.674;4.616;2022-07-06T09:53:57;5.13;;;4.00;;
71087;SDS011;58747;50.674;4.616;2022-07-06T09:56:37;5.40;;;4.07;;
71087;SDS011;58747;50.674;4.616;2022-07-06T09:59:13;3.92;;;3.63;;
71087;SDS011;58747;50.674;4.616;2022-07-06T10:01:40;4.17;;;3.13;;
71087;SDS011;58747;50.674;4.616;2022-07-06T10:04:07;7.28;;;4.30;;
71087;SDS011;58747;50.674;4.616;2022-07-06T10:06:34;5.57;;;3.70;;
71087;SDS011;58747;50.674;4.616;2022-07-06T10:09:00;6.88;;;4.00;;
71087;SDS011;58747;50.674;4.616;2022-07-06T10:11:27;4.68;;;4.22;;
71087;SDS011;58747;50.674;4.616;2022-07-06T10:13:55;6.63;;;4.00;;
71087;SDS011;58747;50.674;4.616;2022-07-06T10:16:24;7.25;;;4.35;;
71087;SDS011;58747;50.674;4.616;2022-07-06T10:18:51;5.55;;;4.50;;
71087;SDS011;58747;50.674;4.616;2022-07-06T10:21:23;4.72;;;3.30;;
71087;SDS011;58747;50.674;4.616;2022-07-06T10:23:51;4.80;;;4.03;;
71087;SDS011;58747;50.674;4.616;2022-07-06T10:26:17;5.23;;;4.20;;
71087;SDS011;58747;50.674;4.616;2022-07-06T10:28:43;5.10;;;4.20;;
71087;SDS011;58747;50.674;4.616;2022-07-06T10:31:11;5.03;;;4.45;;
71087;SDS011;58747;50.674;4.616;2022-07-06T10:33:39;7.45;;;3.75;;
71087;SDS011;58747;50.674;4.616;2022-07-06T10:36:06;4.88;;;4.00;;
71087;SDS011;58747;50.674;4.616;2022-07-06T10:38:33;5.03;;;4.57;;
71087;SDS011;58747;50.674;4.616;2022-07-06T10:41:03;5.13;;;4.10;;
71087;SDS011;58747;50.674;4.616;2022-07-06T10:48:38;4.85;;;4.28;;
71087;SDS011;58747;50.674;4.616;2022-07-06T10:51:07;4.70;;;4.23;;
71087;SDS011;58747;50.674;4.616;2022-07-06T10:53:37;5.60;;;4.82;;
71087;SDS011;58747;50.674;4.616;2022-07-06T10:56:04;4.68;;;3.75;;
71087;SDS011;58747;50.674;4.616;2022-07-06T11:01:03;4.93;;;3.97;;
71087;SDS011;58747;50.674;4.616;2022-07-06T11:03:34;4.93;;;3.57;;
71087;SDS011;58747;50.674;4.616;2022-07-06T11:16:28;6.18;;;4.97;;
71087;SDS011;58747;50.674;4.616;2022-07-06T11:19:05;6.03;;;4.78;;
71087;SDS011;58747;50.674;4.616;2022-07-06T11:24:12;7.13;;;3.97;;
71087;SDS011;58747;50.674;4.616;2022-07-06T11:26:39;6.88;;;4.20;;
71087;SDS011;58747;50.674;4.616;2022-07-06T11:29:07;6.55;;;5.43;;
71087;SDS011;58747;50.674;4.616;2022-07-06T11:31:34;6.68;;;4.78;;
71087;SDS011;58747;50.674;4.616;2022-07-06T11:34:02;4.43;;;4.03;;
71087;SDS011;58747;50.674;4.616;2022-07-06T11:36:28;5.82;;;4.95;;
71087;SDS011;58747;50.674;4.616;2022-07-06T11:38:53;5.90;;;5.40;;
71087;SDS011;58747;50.674;4.616;2022-07-06T11:41:19;6.18;;;5.35;;
71087;SDS011;58747;50.674;4.616;2022-07-06T11:43:45;4.27;;;3.87;;
71087;SDS011;58747;50.674;4.616;2022-07-06T11:46:18;6.63;;;5.95;;
71087;SDS011;58747;50.674;4.616;2022-07-06T11:48:50;6.22;;;5.63;;
71087;SDS011;58747;50.674;4.616;2022-07-06T11:51:18;5.20;;;4.70;;
71087;SDS011;58747;50.674;4.616;2022-07-06T11:53:47;4.07;;;3.67;;
71087;SDS011;58747;50.674;4.616;2022-07-06T11:56:15;4.13;;;3.72;;
71087;SDS011;58747;50.674;4.616;2022-07-06T11:58:43;6.60;;;3.65;;
71087;SDS011;58747;50.674;4.616;2022-07-06T12:01:11;3.77;;;3.00;;
71087;SDS011;58747;50.674;4.616;2022-07-06T12:03:38;6.53;;;3.60;;
71087;SDS011;58747;50.674;4.616;2022-07-06T12:06:09;5.53;;;3.17;;
71087;SDS011;58747;50.674;4.616;2022-07-06T12:08:43;4.97;;;4.03;;
71087;SDS011;58747;50.674;4.616;2022-07-06T12:11:19;4.32;;;3.67;;
71087;SDS011;58747;50.674;4.616;2022-07-06T12:13:47;4.90;;;4.33;;
71087;SDS011;58747;50.674;4.616;2022-07-06T12:16:14;4.13;;;3.72;;
71087;SDS011;58747;50.674;4.616;2022-07-06T12:18:41;4.40;;;4.00;;
71087;SDS011;58747;50.674;4.616;2022-07-06T12:21:11;5.03;;;4.63;;
71087;SDS011;58747;50.674;4.616;2022-07-06T12:23:45;6.05;;;5.53;;
71087;SDS011;58747;50.674;4.616;2022-07-06T12:26:15;6.00;;;5.40;;
71087;SDS011;58747;50.674;4.616;2022-07-06T12:28:43;5.68;;;4.88;;
71087;SDS011;58747;50.674;4.616;2022-07-06T12:31:09;4.82;;;3.80;;
71087;SDS011;58747;50.674;4.616;2022-07-06T12:33:35;4.57;;;4.22;;
71087;SDS011;58747;50.674;4.616;2022-07-06T12:36:13;4.43;;;4.13;;
71087;SDS011;58747;50.674;4.616;2022-07-06T12:38:44;6.60;;;3.67;;
71087;SDS011;58747;50.674;4.616;2022-07-06T12:41:11;4.97;;;2.93;;
71087;SDS011;58747;50.674;4.616;2022-07-06T12:44:05;3.75;;;3.15;;
71087;SDS011;58747;50.674;4.616;2022-07-06T12:46:36;5.35;;;3.15;;
71087;SDS011;58747;50.674;4.616;2022-07-06T12:49:09;4.43;;;2.83;;
71087;SDS011;58747;50.674;4.616;2022-07-06T12:51:53;4.70;;;4.30;;
71087;SDS011;58747;50.674;4.616;2022-07-06T12:54:36;5.20;;;4.70;;
71087;SDS011;58747;50.674;4.616;2022-07-06T12:57:22;4.68;;;4.28;;
71087;SDS011;58747;50.674;4.616;2022-07-06T13:05:01;5.47;;;3.78;;
71087;SDS011;58747;50.674;4.616;2022-07-06T13:07:30;3.77;;;3.47;;
71087;SDS011;58747;50.674;4.616;2022-07-06T13:09:57;3.85;;;3.55;;
71087;SDS011;58747;50.674;4.616;2022-07-06T13:12:23;9.32;;;3.60;;
71087;SDS011;58747;50.674;4.616;2022-07-06T13:14:49;6.35;;;3.00;;
71087;SDS011;58747;50.674;4.616;2022-07-06T13:17:15;2.92;;;2.53;;
71087;SDS011;58747;50.674;4.616;2022-07-06T13:19:41;6.57;;;2.80;;
71087;SDS011;58747;50.674;4.616;2022-07-06T13:22:06;2.80;;;2.60;;
71087;SDS011;58747;50.674;4.616;2022-07-06T13:24:32;5.13;;;3.20;;
71087;SDS011;58747;50.674;4.616;2022-07-06T13:26:58;4.38;;;3.08;;
71087;SDS011;58747;50.674;4.616;2022-07-06T13:29:23;3.80;;;3.10;;
71087;SDS011;58747;50.674;4.616;2022-07-06T13:31:49;3.13;;;2.83;;
71087;SDS011;58747;50.674;4.616;2022-07-06T13:34:15;4.63;;;2.90;;
71087;SDS011;58747;50.674;4.616;2022-07-06T13:36:40;3.88;;;2.97;;
71087;SDS011;58747;50.674;4.616;2022-07-06T13:39:06;3.93;;;3.17;;
71087;SDS011;58747;50.674;4.616;2022-07-06T13:41:32;3.70;;;2.97;;
71087;SDS011;58747;50.674;4.616;2022-07-06T13:43:58;3.17;;;2.93;;
71087;SDS011;58747;50.674;4.616;2022-07-06T13:46:25;3.38;;;3.10;;
71087;SDS011;58747;50.674;4.616;2022-07-06T13:48:51;5.00;;;3.10;;
71087;SDS011;58747;50.674;4.616;2022-07-06T13:51:17;4.17;;;3.73;;
71087;SDS011;58747;50.674;4.616;2022-07-06T13:53:42;5.25;;;3.33;;
71087;SDS011;58747;50.674;4.616;2022-07-06T13:56:08;3.33;;;2.90;;
71087;SDS011;58747;50.674;4.616;2022-07-06T13:58:33;4.93;;;3.43;;
71087;SDS011;58747;50.674;4.616;2022-07-06T14:00:59;4.18;;;2.50;;
71087;SDS011;58747;50.674;4.616;2022-07-06T14:03:25;4.67;;;2.50;;
71087;SDS011;58747;50.674;4.616;2022-07-06T14:05:54;4.88;;;2.90;;
71087;SDS011;58747;50.674;4.616;2022-07-06T14:08:26;4.80;;;3.05;;
71087;SDS011;58747;50.674;4.616;2022-07-06T14:10:53;3.17;;;2.58;;
71087;SDS011;58747;50.674;4.616;2022-07-06T14:13:19;4.85;;;3.35;;
71087;SDS011;58747;50.674;4.616;2022-07-06T14:15:45;5.13;;;3.20;;
71087;SDS011;58747;50.674;4.616;2022-07-06T14:18:10;5.22;;;2.70;;
71087;SDS011;58747;50.674;4.616;2022-07-06T14:20:36;3.33;;;2.87;;
71087;SDS011;58747;50.674;4.616;2022-07-06T14:23:01;2.87;;;2.63;;
71087;SDS011;58747;50.674;4.616;2022-07-06T14:25:27;4.37;;;2.83;;
71087;SDS011;58747;50.674;4.616;2022-07-06T14:27:52;4.47;;;3.27;;
71087;SDS011;58747;50.674;4.616;2022-07-06T14:30:18;4.17;;;3.10;;
71087;SDS011;58747;50.674;4.616;2022-07-06T14:32:43;3.23;;;2.80;;
71087;SDS011;58747;50.674;4.616;2022-07-06T14:35:09;5.30;;;3.90;;
71087;SDS011;58747;50.674;4.616;2022-07-06T14:37:37;3.22;;;2.95;;
71087;SDS011;58747;50.674;4.616;2022-07-06T14:40:03;3.20;;;2.70;;
71087;SDS011;58747;50.674;4.616;2022-07-06T14:42:28;3.08;;;2.80;;
71087;SDS011;58747;50.674;4.616;2022-07-06T14:44:54;5.83;;;3.23;;
71087;SDS011;58747;50.674;4.616;2022-07-06T14:47:19;4.70;;;3.90;;
71087;SDS011;58747;50.674;4.616;2022-07-06T14:49:45;3.60;;;3.03;;
71087;SDS011;58747;50.674;4.616;2022-07-06T14:52:10;2.80;;;2.60;;
71087;SDS011;58747;50.674;4.616;2022-07-06T14:54:35;3.17;;;2.77;;
71087;SDS011;58747;50.674;4.616;2022-07-06T14:57:01;3.07;;;2.73;;
71087;SDS011;58747;50.674;4.616;2022-07-06T14:59:29;6.00;;;3.17;;
71087;SDS011;58747;50.674;4.616;2022-07-06T15:01:55;3.77;;;2.23;;
71087;SDS011;58747;50.674;4.616;2022-07-06T15:04:20;5.33;;;2.80;;
71087;SDS011;58747;50.674;4.616;2022-07-06T15:06:46;3.10;;;2.80;;
71087;SDS011;58747;50.674;4.616;2022-07-06T15:09:11;3.00;;;2.80;;
71087;SDS011;58747;50.674;4.616;2022-07-06T15:11:36;7.68;;;2.35;;
71087;SDS011;58747;50.674;4.616;2022-07-06T15:14:02;6.77;;;2.70;;
71087;SDS011;58747;50.674;4.616;2022-07-06T15:16:28;2.90;;;2.70;;